Time;durP1;ratioP1;P1;durP2;ratioP2;P2;SDS_P1;SDS_P2;PMS_P1;PMS_P2;Temp;Humidity;BMP_temperature;BMP_pressure;BME280_temperature;BME280_humidity;BME280_pressure;Samples;Min_cycle;Max_cycle;Signal;HPM_P1;HPM_P2
2022/06/29 00:00:10;;;;;;;;;;;;;;;16.81;100.00;98566.34;5072153;28;20062;-83
2022/06/29 00:02:38;;;;;;;;;;;;;;;16.57;100.00;98571.13;5056017;28;19924;-83
2022/06/29 00:05:07;;;;;;;;;;;;;;;16.40;100.00;98564.25;5089187;28;19995;-83
2022/06/29 00:07:34;;;;;;;;;;;;;;;15.85;100.00;98567.19;5072485;28;20379;-83
2022/06/29 00:10:02;;;;;;;;;;;;;;;16.64;100.00;98567.97;5088849;28;19939;-84
2022/06/29 00:12:30;;;;;;;;;;;;;;;16.21;100.00;98569.94;5055769;28;19997;-84
2022/06/29 00:14:58;;;;;;;;;;;;;;;15.96;100.00;98561.81;5089047;28;19955;-83
2022/06/29 00:17:26;;;;;;;;;;;;;;;16.42;100.00;98558.94;5089580;28;20001;-84
2022/06/29 00:19:54;;;;;;;;;;;;;;;16.58;100.00;98558.59;5088999;28;20387;-83
2022/06/29 00:22:22;;;;;;;;;;;;;;;16.72;100.00;98552.25;5056105;28;20384;-84
2022/06/29 00:24:50;;;;;;;;;;;;;;;16.94;100.00;98549.94;5089006;28;20022;-84
2022/06/29 00:27:17;;;;;;;;;;;;;;;16.80;100.00;98564.75;5072098;28;19929;-83
2022/06/29 00:29:45;;;;;;;;;;;;;;;16.62;100.00;98559.19;5053534;28;20295;-83
2022/06/29 00:32:13;;;;;;;;;;;;;;;16.52;100.00;98549.22;5088693;28;19924;-83
2022/06/29 00:34:40;;;;;;;;;;;;;;;16.38;100.00;98549.84;5088870;28;19970;-84
2022/06/29 00:37:08;;;;;;;;;;;;;;;16.27;100.00;98549.59;5073169;28;19962;-83
2022/06/29 00:39:35;;;;;;;;;;;;;;;16.42;100.00;98553.28;5088458;28;19928;-84
2022/06/29 00:42:03;;;;;;;;;;;;;;;16.33;100.00;98547.69;5071973;28;19924;-83
2022/06/29 00:44:30;;;;;;;;;;;;;;;16.25;100.00;98531.09;5088111;28;19957;-84
2022/06/29 00:46:59;;;;;;;;;;;;;;;16.03;100.00;98536.16;5073036;28;20342;-84
2022/06/29 00:49:28;;;;;;;;;;;;;;;16.16;100.00;98544.44;5038588;28;19935;-84
2022/06/29 00:52:02;;;;;;;;;;;;;;;15.98;100.00;98545.25;5071920;28;20019;-84
2022/06/29 00:54:39;;;;;;;;;;;;;;;16.04;100.00;98549.00;5055205;28;19925;-83
2022/06/29 00:57:17;;;;;;;;;;;;;;;16.19;100.00;98544.25;5088734;28;19924;-83
2022/06/29 00:59:47;;;;;;;;;;;;;;;16.01;100.00;98549.94;5071270;28;19928;-83
2022/06/29 01:02:16;;;;;;;;;;;;;;;16.12;100.00;98533.31;5072871;28;20019;-83
2022/06/29 01:04:44;;;;;;;;;;;;;;;16.10;100.00;98546.31;5072841;28;20307;-83
2022/06/29 01:07:13;;;;;;;;;;;;;;;16.24;100.00;98554.91;5071583;28;19978;-84
2022/06/29 01:09:42;;;;;;;;;;;;;;;16.27;100.00;98556.78;5072662;28;19963;-83
2022/06/29 01:12:10;;;;;;;;;;;;;;;16.01;100.00;98543.50;5071350;28;19974;-84
2022/06/29 01:14:42;;;;;;;;;;;;;;;16.32;100.00;98557.38;5038568;28;19990;-84
2022/06/29 01:17:11;;;;;;;;;;;;;;;16.33;100.00;98547.69;5072728;28;19928;-83
2022/06/29 01:19:39;;;;;;;;;;;;;;;16.32;100.00;98546.09;5088244;28;20378;-83
2022/06/29 01:22:08;;;;;;;;;;;;;;;15.83;100.00;98552.00;5055045;28;19924;-83
2022/06/29 01:24:36;;;;;;;;;;;;;;;15.88;100.00;98532.44;5087855;28;19924;-83
2022/06/29 01:27:04;;;;;;;;;;;;;;;15.96;100.00;98539.28;5054898;28;19925;-83
2022/06/29 01:29:32;;;;;;;;;;;;;;;15.83;100.00;98527.44;5104939;28;19931;-84
2022/06/29 01:32:00;;;;;;;;;;;;;;;15.93;100.00;98526.16;5104860;28;20013;-83
2022/06/29 01:34:52;;;;;;;;;;;;;;;16.15;100.00;98526.75;5131497;27;19911;-83
2022/06/29 01:37:19;;;;;;;;;;;;;;;15.95;100.00;98514.41;5130105;28;19946;-84
2022/06/29 01:39:47;;;;;;;;;;;;;;;16.21;100.00;98524.84;5112569;28;19930;-86
2022/06/29 01:42:14;;;;;;;;;;;;;;;15.99;100.00;98521.44;5129667;28;19958;-86
2022/06/29 01:44:42;;;;;;;;;;;;;;;15.81;100.00;98518.66;5131537;27;19955;-85
2022/06/29 01:47:10;;;;;;;;;;;;;;;15.82;100.00;98508.19;5113136;28;19927;-86
2022/06/29 01:49:37;;;;;;;;;;;;;;;15.47;100.00;98533.09;5112445;28;19931;-86
2022/06/29 01:52:05;;;;;;;;;;;;;;;15.72;100.00;98532.75;5112911;28;19923;-86
2022/06/29 01:54:33;;;;;;;;;;;;;;;15.41;100.00;98520.09;5079190;28;19927;-84
2022/06/29 01:57:01;;;;;;;;;;;;;;;15.68;100.00;98518.06;5112507;28;20361;-79
2022/06/29 01:59:28;;;;;;;;;;;;;;;16.12;100.00;98507.16;5129701;28;19958;-93
2022/06/29 02:01:56;;;;;;;;;;;;;;;16.36;100.00;98512.91;5079416;28;19924;-84
2022/06/29 02:04:23;;;;;;;;;;;;;;;16.33;100.00;98508.22;5128727;28;19924;-84
2022/06/29 02:06:51;;;;;;;;;;;;;;;16.58;100.00;98507.81;5129663;28;19923;-84
2022/06/29 02:09:18;;;;;;;;;;;;;;;16.33;100.00;98502.59;5111815;28;19924;-84
2022/06/29 02:11:46;;;;;;;;;;;;;;;15.91;100.00;98500.50;5130608;27;19923;-84
2022/06/29 02:14:13;;;;;;;;;;;;;;;16.43;100.00;98506.91;5129266;28;20402;-85
2022/06/29 02:16:40;;;;;;;;;;;;;;;16.30;100.00;98492.25;5112351;28;20282;-83
2022/06/29 02:19:08;;;;;;;;;;;;;;;16.07;100.00;98511.41;5111863;28;20266;-83
2022/06/29 02:21:35;;;;;;;;;;;;;;;16.30;100.00;98512.00;5112422;28;19930;-84
2022/06/29 02:24:03;;;;;;;;;;;;;;;16.16;100.00;98505.00;5128709;28;19928;-83
2022/06/29 02:26:31;;;;;;;;;;;;;;;15.83;100.00;98507.72;5129140;28;19924;-80
2022/06/29 02:28:58;;;;;;;;;;;;;;;15.28;100.00;98502.56;5130303;28;20338;-83
2022/06/29 02:36:58;;;;;;;;;;;;;;;15.73;100.00;98508.19;5111851;28;19923;-83
2022/06/29 02:39:25;;;;;;;;;;;;;;;16.01;100.00;98502.03;5128658;28;19927;-83
2022/06/29 02:41:53;;;;;;;;;;;;;;;15.98;100.00;98500.16;5111840;28;19958;-83
2022/06/29 02:44:20;;;;;;;;;;;;;;;15.83;100.00;98496.44;5125854;28;19969;-83
2022/06/29 02:46:48;;;;;;;;;;;;;;;15.66;100.00;98509.28;5098301;28;19977;-83
2022/06/29 02:49:16;;;;;;;;;;;;;;;15.83;100.00;98512.56;5115058;28;19923;-83
2022/06/29 02:51:44;;;;;;;;;;;;;;;15.84;100.00;98506.44;5098268;28;19930;-83
2022/06/29 02:54:11;;;;;;;;;;;;;;;15.85;100.00;98491.13;5115936;28;19946;-83
2022/06/29 02:56:39;;;;;;;;;;;;;;;15.20;100.00;98502.09;5114992;28;19923;-82
2022/06/29 02:59:06;;;;;;;;;;;;;;;15.78;100.00;98508.31;5097803;28;20014;-82
2022/06/29 03:01:33;;;;;;;;;;;;;;;15.43;100.00;98503.53;5115142;28;20375;-82
2022/06/29 03:04:01;;;;;;;;;;;;;;;15.62;100.00;98494.59;5097669;28;20389;-83
2022/06/29 03:06:28;;;;;;;;;;;;;;;15.77;100.00;98483.47;5115701;28;19924;-82
2022/06/29 03:08:56;;;;;;;;;;;;;;;15.47;100.00;98462.69;5097721;28;19963;-82
2022/06/29 03:11:23;;;;;;;;;;;;;;;15.17;100.00;98463.63;5114684;28;19928;-82
2022/06/29 03:13:50;;;;;;;;;;;;;;;15.69;100.00;98468.91;5097176;28;19924;-82
2022/06/29 03:16:18;;;;;;;;;;;;;;;15.60;100.00;98454.09;5114650;28;19931;-82
2022/06/29 03:18:46;;;;;;;;;;;;;;;15.98;100.00;98448.66;5115786;28;19977;-82
2022/06/29 03:21:13;;;;;;;;;;;;;;;15.99;100.00;98453.81;5115526;28;19981;-83
2022/06/29 03:23:41;;;;;;;;;;;;;;;15.68;100.00;98453.28;5115518;28;20026;-83
2022/06/29 03:26:08;;;;;;;;;;;;;;;15.91;100.00;98441.34;5114427;28;19963;-83
2022/06/29 03:28:36;;;;;;;;;;;;;;;15.92;100.00;98450.56;5080509;28;20379;-83
2022/06/29 03:31:04;;;;;;;;;;;;;;;16.42;100.00;98454.63;5114086;28;20298;-83
2022/06/29 03:33:31;;;;;;;;;;;;;;;16.52;100.00;98453.34;5113767;28;19923;-83
2022/06/29 03:35:59;;;;;;;;;;;;;;;16.02;100.00;98461.31;5114102;28;19924;-83
2022/06/29 03:38:27;;;;;;;;;;;;;;;16.17;100.00;98467.09;5113977;28;19930;-83
2022/06/29 03:40:55;;;;;;;;;;;;;;;15.93;100.00;98452.13;5115250;28;19927;-83
2022/06/29 03:43:22;;;;;;;;;;;;;;;15.90;100.00;98467.94;5114286;28;19973;-83
2022/06/29 03:45:50;;;;;;;;;;;;;;;15.70;100.00;98441.53;5113450;28;20409;-83
2022/06/29 03:48:18;;;;;;;;;;;;;;;15.68;100.00;98430.75;5115047;28;20372;-83
2022/06/29 03:50:45;;;;;;;;;;;;;;;15.99;100.00;98439.72;5115065;28;20455;-83
2022/06/29 03:53:12;;;;;;;;;;;;;;;16.15;100.00;98436.56;5114804;28;20378;-83
2022/06/29 03:55:40;;;;;;;;;;;;;;;15.43;100.00;98448.00;5113266;28;20309;-83
2022/06/29 03:58:07;;;;;;;;;;;;;;;16.00;100.00;98449.75;5096307;28;19976;-83
2022/06/29 04:00:35;;;;;;;;;;;;;;;16.04;100.00;98447.53;5096505;28;20438;-83
2022/06/29 04:03:02;;;;;;;;;;;;;;;16.25;100.00;98446.53;5079530;28;19924;-83
2022/06/29 04:05:30;;;;;;;;;;;;;;;16.50;100.00;98450.19;5113558;28;20363;-83
2022/06/29 04:07:57;;;;;;;;;;;;;;;16.53;100.00;98450.03;5113309;28;19977;-83
2022/06/29 04:10:25;;;;;;;;;;;;;;;16.35;100.00;98449.31;5079792;28;19927;-83
2022/06/29 04:12:52;;;;;;;;;;;;;;;16.21;100.00;98445.13;5115015;28;19923;-83
2022/06/29 04:15:20;;;;;;;;;;;;;;;16.24;100.00;98450.59;5114561;28;19966;-83
2022/06/29 04:17:47;;;;;;;;;;;;;;;16.25;100.00;98437.31;5113342;28;19951;-83
2022/06/29 04:23:08;;;;;;;;;;;;;;;16.25;100.00;98438.06;5059066;28;20412;-83
2022/06/29 04:25:36;;;;;;;;;;;;;;;16.44;100.00;98438.81;5079856;28;19923;-83
2022/06/29 04:28:03;;;;;;;;;;;;;;;15.68;100.00;98435.59;5114337;27;19924;-83
2022/06/29 04:30:31;;;;;;;;;;;;;;;15.68;100.00;98452.50;5113140;28;19924;-84
2022/06/29 04:32:58;;;;;;;;;;;;;;;15.82;100.00;98434.94;5113950;28;19946;-83
2022/06/29 04:35:26;;;;;;;;;;;;;;;15.73;100.00;98435.75;5112726;28;19924;-83
2022/06/29 04:37:53;;;;;;;;;;;;;;;16.23;100.00;98432.16;5096057;28;19923;-83
2022/06/29 04:40:21;;;;;;;;;;;;;;;16.26;100.00;98433.22;5114103;28;19970;-83
2022/06/29 04:42:48;;;;;;;;;;;;;;;16.36;100.00;98429.09;5095738;28;19973;-82
2022/06/29 04:48:02;;;;;;;;;;;;;;;15.59;100.00;98425.16;5113886;28;19992;-83
2022/06/29 04:50:30;;;;;;;;;;;;;;;15.73;100.00;98421.69;5095722;28;19923;-83
2022/06/29 04:52:57;;;;;;;;;;;;;;;15.31;100.00;98422.81;5096016;28;19923;-83
2022/06/29 04:55:28;;;;;;;;;;;;;;;15.75;100.00;98433.22;5078876;28;19924;-83
2022/06/29 04:57:55;;;;;;;;;;;;;;;15.82;100.00;98438.56;5112586;28;19924;-84
2022/06/29 05:00:23;;;;;;;;;;;;;;;15.60;100.00;98442.81;5095862;28;19976;-83
2022/06/29 05:02:51;;;;;;;;;;;;;;;15.62;100.00;98438.28;5095610;28;19985;-83
2022/06/29 05:05:19;;;;;;;;;;;;;;;15.50;100.00;98436.41;5095488;28;19927;-83
2022/06/29 05:07:47;;;;;;;;;;;;;;;15.77;100.00;98439.19;5112320;28;19949;-83
2022/06/29 05:10:15;;;;;;;;;;;;;;;15.29;100.00;98426.09;5095553;28;19985;-83
2022/06/29 05:12:43;;;;;;;;;;;;;;;15.71;100.00;98432.63;5078794;28;19973;-83
2022/06/29 05:15:10;;;;;;;;;;;;;;;15.92;100.00;98445.72;5113674;28;19977;-83
2022/06/29 05:17:39;;;;;;;;;;;;;;;15.90;100.00;98420.03;5078847;28;20071;-83
2022/06/29 05:20:08;;;;;;;;;;;;;;;15.87;100.00;98432.25;5113363;28;19938;-83
2022/06/29 05:22:35;;;;;;;;;;;;;;;15.60;100.00;98423.88;5113732;28;19931;-83
2022/06/29 05:25:03;;;;;;;;;;;;;;;15.88;100.00;98419.75;5112190;28;20332;-83
2022/06/29 05:27:31;;;;;;;;;;;;;;;15.74;100.00;98417.59;5078041;28;19924;-83
2022/06/29 05:29:58;;;;;;;;;;;;;;;15.62;100.00;98421.38;5113164;28;19924;-83
2022/06/29 05:32:26;;;;;;;;;;;;;;;15.77;100.00;98416.66;5094953;28;19924;-83
2022/06/29 05:34:54;;;;;;;;;;;;;;;16.13;100.00;98433.44;5111731;28;20024;-83
2022/06/29 05:37:22;;;;;;;;;;;;;;;16.44;100.00;98423.91;5079066;28;20357;-83
2022/06/29 05:39:49;;;;;;;;;;;;;;;15.79;100.00;98419.78;5061856;28;19985;-83
2022/06/29 05:42:16;;;;;;;;;;;;;;;15.55;100.00;98443.44;5095533;28;20400;-83
2022/06/29 05:44:44;;;;;;;;;;;;;;;15.28;100.00;98447.03;5113291;28;19924;-83
2022/06/29 05:47:11;;;;;;;;;;;;;;;15.80;100.00;98443.06;5113149;28;19924;-84
2022/06/29 05:49:39;;;;;;;;;;;;;;;15.60;100.00;98452.03;5111917;28;19927;-84
2022/06/29 05:52:07;;;;;;;;;;;;;;;15.53;100.00;98437.50;5094723;28;19923;-83
2022/06/29 05:54:34;;;;;;;;;;;;;;;15.27;100.00;98445.47;5113096;28;20271;-83
2022/06/29 05:57:02;;;;;;;;;;;;;;;16.07;100.00;98446.59;5078171;28;19927;-84
2022/06/29 05:59:29;;;;;;;;;;;;;;;15.98;100.00;98445.84;5078090;28;19924;-84
2022/06/29 06:01:57;;;;;;;;;;;;;;;16.14;100.00;98451.91;5077926;28;19965;-84
2022/06/29 06:04:25;;;;;;;;;;;;;;;16.02;100.00;98441.59;5094919;28;20358;-84
2022/06/29 06:06:53;;;;;;;;;;;;;;;16.01;100.00;98439.25;5111872;28;19924;-84
2022/06/29 06:09:25;;;;;;;;;;;;;;;16.45;100.00;98440.34;5111749;28;19924;-83
2022/06/29 06:11:55;;;;;;;;;;;;;;;15.87;100.00;98437.13;5094667;28;20385;-84
2022/06/29 06:14:23;;;;;;;;;;;;;;;16.35;100.00;98443.66;5094373;28;19924;-84
2022/06/29 06:16:50;;;;;;;;;;;;;;;15.72;100.00;98439.81;5094801;28;20290;-83
2022/06/29 06:19:18;;;;;;;;;;;;;;;15.94;100.00;98437.56;5112691;28;19953;-84
2022/06/29 06:21:45;;;;;;;;;;;;;;;15.97;100.00;98447.09;5081578;28;19955;-84
2022/06/29 06:24:12;;;;;;;;;;;;;;;16.64;100.00;98438.22;5115575;28;20378;-83
2022/06/29 06:26:40;;;;;;;;;;;;;;;16.78;100.00;98426.22;5098591;28;20358;-84
2022/06/29 06:29:07;;;;;;;;;;;;;;;17.29;100.00;98432.41;5115128;28;20370;-84
2022/06/29 06:31:35;;;;;;;;;;;;;;;17.27;100.00;98429.28;5115157;28;19930;-84
2022/06/29 06:34:02;;;;;;;;;;;;;;;17.18;100.00;98432.19;5081503;28;19924;-84
2022/06/29 06:36:30;;;;;;;;;;;;;;;16.91;100.00;98429.56;5115327;28;20445;-84
2022/06/29 06:38:57;;;;;;;;;;;;;;;16.65;100.00;98436.94;5098626;28;20347;-84
2022/06/29 06:41:25;;;;;;;;;;;;;;;16.39;100.00;98428.13;5098455;28;19924;-84
2022/06/29 06:43:54;;;;;;;;;;;;;;;16.45;100.00;98436.78;5115184;28;20018;-84
2022/06/29 06:46:22;;;;;;;;;;;;;;;16.60;100.00;98427.09;5114933;28;19931;-84
2022/06/29 06:48:50;;;;;;;;;;;;;;;16.63;100.00;98422.56;5081437;28;20363;-84
2022/06/29 06:51:19;;;;;;;;;;;;;;;16.41;100.00;98420.00;5115084;28;20371;-84
2022/06/29 06:53:46;;;;;;;;;;;;;;;16.40;100.00;98417.66;5081252;28;19924;-84
2022/06/29 06:56:17;;;;;;;;;;;;;;;17.02;100.00;98429.81;5097865;28;19924;-84
2022/06/29 06:58:44;;;;;;;;;;;;;;;16.77;100.00;98427.47;5116203;28;19924;-84
2022/06/29 07:01:15;;;;;;;;;;;;;;;17.60;100.00;98418.66;5064940;28;19924;-84
2022/06/29 07:03:42;;;;;;;;;;;;;;;17.49;100.00;98419.22;5113879;28;19923;-84
2022/06/29 07:06:10;;;;;;;;;;;;;;;19.20;100.00;98418.28;5098023;28;19924;-84
2022/06/29 07:08:39;;;;;;;;;;;;;;;19.85;100.00;98399.69;5098031;28;20293;-84
2022/06/29 07:11:07;;;;;;;;;;;;;;;19.89;100.00;98405.91;5116052;28;19932;-85
2022/06/29 07:13:35;;;;;;;;;;;;;;;19.68;100.00;98403.16;5097630;28;19923;-85
2022/06/29 07:16:04;;;;;;;;;;;;;;;19.12;100.00;98412.28;5097223;28;20379;-85
2022/06/29 07:18:32;;;;;;;;;;;;;;;18.75;100.00;98419.75;5114328;28;19923;-85
2022/06/29 07:21:00;;;;;;;;;;;;;;;17.93;100.00;98419.25;5097875;28;20378;-85
2022/06/29 07:23:27;;;;;;;;;;;;;;;17.74;100.00;98423.53;5114636;28;19928;-85
2022/06/29 07:25:55;;;;;;;;;;;;;;;17.10;100.00;98431.03;5080677;28;20275;-86
2022/06/29 07:28:23;;;;;;;;;;;;;;;16.91;100.00;98423.94;5096408;28;19928;-85
2022/06/29 07:30:51;;;;;;;;;;;;;;;17.59;100.00;98429.19;5080575;28;20023;-86
2022/06/29 07:33:19;;;;;;;;;;;;;;;16.73;100.00;98435.34;5115219;28;19976;-87
2022/06/29 07:35:46;;;;;;;;;;;;;;;16.89;100.00;98423.66;5097181;28;20401;-85
2022/06/29 07:38:13;;;;;;;;;;;;;;;16.82;100.00;98424.78;5115417;28;19924;-85
2022/06/29 07:40:41;;;;;;;;;;;;;;;17.28;100.00;98431.63;5097149;28;19938;-86
2022/06/29 07:43:09;;;;;;;;;;;;;;;17.14;100.00;98426.75;5080575;28;19924;-88
2022/06/29 07:45:37;;;;;;;;;;;;;;;16.54;100.00;98428.25;5097114;28;19927;-77
2022/06/29 07:48:05;;;;;;;;;;;;;;;16.89;100.00;98432.13;5114125;28;19973;-82
2022/06/29 07:50:32;;;;;;;;;;;;;;;16.98;100.00;98429.22;5096427;28;19924;-79
2022/06/29 07:53:00;;;;;;;;;;;;;;;17.54;100.00;98424.22;5113101;28;20293;-79
2022/06/29 07:55:27;;;;;;;;;;;;;;;18.19;100.00;98425.06;5095623;28;19977;-79
2022/06/29 07:57:55;;;;;;;;;;;;;;;18.65;100.00;98423.22;5097037;28;19946;-79
2022/06/29 08:00:22;;;;;;;;;;;;;;;18.78;100.00;98413.13;5113679;28;19924;-79
2022/06/29 08:02:51;;;;;;;;;;;;;;;18.50;100.00;98405.50;5113728;28;19970;-79
2022/06/29 08:05:20;;;;;;;;;;;;;;;18.82;100.00;98415.75;5113091;28;19924;-79
2022/06/29 08:07:47;;;;;;;;;;;;;;;17.84;100.00;98406.00;5114671;28;20049;-79
2022/06/29 08:10:14;;;;;;;;;;;;;;;18.18;100.00;98424.28;5112889;28;19924;-79
2022/06/29 08:12:42;;;;;;;;;;;;;;;18.63;100.00;98409.56;5113316;28;20010;-79
2022/06/29 08:15:10;;;;;;;;;;;;;;;18.65;100.00;98409.06;5113050;28;19923;-79
2022/06/29 08:17:37;;;;;;;;;;;;;;;17.19;100.00;98417.59;5113257;28;19970;-79
2022/06/29 08:20:05;;;;;;;;;;;;;;;17.20;100.00;98421.19;5096220;28;19955;-79
2022/06/29 08:22:32;;;;;;;;;;;;;;;17.84;100.00;98411.66;5096489;28;20421;-80
2022/06/29 08:25:00;;;;;;;;;;;;;;;17.98;100.00;98421.38;5114437;28;19925;-81
2022/06/29 08:27:28;;;;;;;;;;;;;;;19.55;100.00;98405.56;5079048;28;19966;-80
2022/06/29 08:30:13;;;;;;;;;;;;;;;20.44;100.00;98400.69;5113097;28;19923;-80
2022/06/29 08:32:42;;;;;;;;;;;;;;;20.60;100.00;98402.88;5096220;28;20011;-81
2022/06/29 08:35:10;;;;;;;;;;;;;;;20.32;100.00;98404.72;5112915;28;20396;-84
2022/06/29 08:37:38;;;;;;;;;;;;;;;19.36;100.00;98410.00;5113075;28;19927;-82
2022/06/29 08:40:07;;;;;;;;;;;;;;;17.92;100.00;98426.16;5112266;28;19928;-83
2022/06/29 08:42:38;;;;;;;;;;;;;;;17.98;100.00;98427.03;5112292;28;20287;-80
2022/06/29 08:45:06;;;;;;;;;;;;;;;17.60;100.00;98429.94;5112892;28;19923;-80
2022/06/29 08:47:34;;;;;;;;;;;;;;;17.55;100.00;98425.75;5096127;28;20321;-80
2022/06/29 08:50:05;;;;;;;;;;;;;;;17.18;100.00;98432.97;5114023;28;19923;-80
2022/06/29 08:52:34;;;;;;;;;;;;;;;17.58;100.00;98429.69;5112646;28;19924;-80
2022/06/29 08:55:03;;;;;;;;;;;;;;;17.78;100.00;98433.38;5078514;28;19977;-80
2022/06/29 08:57:31;;;;;;;;;;;;;;;17.69;100.00;98441.94;5094806;28;20367;-81
2022/06/29 08:59:59;;;;;;;;;;;;;;;18.20;100.00;98432.28;5095272;28;19927;-80
2022/06/29 09:02:27;;;;;;;;;;;;;;;18.56;100.00;98426.97;5078618;28;19928;-80
2022/06/29 09:04:55;;;;;;;;;;;;;;;18.30;100.00;98433.72;5095113;28;20398;-80
2022/06/29 09:07:26;;;;;;;;;;;;;;;18.43;100.00;98423.69;5113679;28;19924;-80
2022/06/29 09:10:07;;;;;;;;;;;;;;;17.94;100.00;98427.25;5095533;28;19924;-80
2022/06/29 09:12:35;;;;;;;;;;;;;;;17.55;100.00;98427.81;5095569;28;19947;-81
2022/06/29 09:15:04;;;;;;;;;;;;;;;17.53;100.00;98436.00;5113532;28;19924;-81
2022/06/29 09:17:32;;;;;;;;;;;;;;;17.70;100.00;98446.34;5113513;28;19924;-80
2022/06/29 09:19:59;;;;;;;;;;;;;;;18.45;100.00;98437.34;5112541;28;19951;-80
2022/06/29 09:22:55;;;;;;;;;;;;;;;19.18;100.00;98444.28;5112068;28;20016;-81
2022/06/29 09:25:26;;;;;;;;;;;;;;;19.69;100.00;98443.56;5094847;28;19924;-81
2022/06/29 09:27:57;;;;;;;;;;;;;;;19.21;100.00;98420.63;5095318;28;19977;-81
2022/06/29 09:30:30;;;;;;;;;;;;;;;18.85;100.00;98443.84;5095050;28;19966;-81
2022/06/29 09:32:59;;;;;;;;;;;;;;;18.45;100.00;98446.59;5078144;28;19924;-81
2022/06/29 09:35:27;;;;;;;;;;;;;;;18.66;100.00;98445.38;5112376;28;20351;-81
2022/06/29 09:38:15;;;;;;;;;;;;;;;18.43;100.00;98451.97;5094963;28;19932;-81
2022/06/29 09:40:59;;;;;;;;;;;;;;;18.88;100.00;98447.72;5111814;28;20394;-81
2022/06/29 09:43:27;;;;;;;;;;;;;;;18.72;100.00;98463.19;5111802;28;19924;-81
2022/06/29 09:45:55;;;;;;;;;;;;;;;18.84;100.00;98453.59;5111978;28;20436;-81
2022/06/29 09:48:24;;;;;;;;;;;;;;;19.33;100.00;98450.66;5094448;28;19924;-81
2022/06/29 09:50:55;;;;;;;;;;;;;;;18.43;100.00;98457.63;5111578;28;19924;-81
2022/06/29 09:53:31;;;;;;;;;;;;;;;18.59;100.00;98459.13;5078134;28;20298;-80
2022/06/29 09:56:02;;;;;;;;;;;;;;;18.49;100.00;98464.16;5114704;28;19928;-81
2022/06/29 09:58:50;;;;;;;;;;;;;;;18.58;100.00;98464.03;5115878;28;19923;-81
2022/06/29 10:04:08;;;;;;;;;;;;;;;20.86;100.00;98438.38;5115976;28;19927;-81
2022/06/29 10:06:35;;;;;;;;;;;;;;;21.06;100.00;98443.94;5115713;28;19959;-81
2022/06/29 10:09:03;;;;;;;;;;;;;;;21.26;100.00;98440.16;5099008;28;19974;-81
2022/06/29 10:14:36;;;;;;;;;;;;;;;20.98;100.00;98442.84;5081318;28;19923;-81
2022/06/29 10:17:12;;;;;;;;;;;;;;;21.38;100.00;98427.53;5098979;28;19977;-81
2022/06/29 10:19:50;;;;;;;;;;;;;;;22.00;100.00;98427.19;5115329;28;20399;-81
2022/06/29 10:22:18;;;;;;;;;;;;;;;22.24;100.00;98423.81;5115610;28;19951;-81
2022/06/29 10:25:02;;;;;;;;;;;;;;;20.74;100.00;98427.44;5116609;28;19976;-81
2022/06/29 10:27:30;;;;;;;;;;;;;;;21.07;100.00;98433.34;5098395;28;19927;-81
2022/06/29 10:30:16;;;;;;;;;;;;;;;21.19;100.00;98420.72;5098722;28;19923;-81
2022/06/29 10:32:44;;;;;;;;;;;;;;;20.60;100.00;98429.19;5081776;28;20345;-81
2022/06/29 10:35:11;;;;;;;;;;;;;;;19.67;100.00;98427.06;5098327;28;19931;-81
2022/06/29 10:37:50;;;;;;;;;;;;;;;19.55;100.00;98428.25;5081464;28;19924;-81
2022/06/29 10:40:18;;;;;;;;;;;;;;;20.43;100.00;98416.94;5115201;28;19977;-81
2022/06/29 10:45:41;;;;;;;;;;;;;;;21.16;100.00;98424.59;5114823;28;19931;-81
2022/06/29 10:48:12;;;;;;;;;;;;;;;21.44;100.00;98416.97;5114593;28;19924;-81
2022/06/29 10:50:44;;;;;;;;;;;;;;;21.54;100.00;98401.22;5115233;28;19934;-81
2022/06/29 10:53:12;;;;;;;;;;;;;;;21.30;100.00;98409.41;5116314;28;19923;-81
2022/06/29 10:55:41;;;;;;;;;;;;;;;21.73;100.00;98416.50;5098086;28;19928;-81
2022/06/29 10:58:09;;;;;;;;;;;;;;;21.31;100.00;98408.91;5114833;28;20340;-81
2022/06/29 11:00:40;;;;;;;;;;;;;;;21.14;100.00;98418.66;5115996;28;19928;-81
2022/06/29 11:03:08;;;;;;;;;;;;;;;20.97;100.00;98410.06;5114890;28;20294;-81
2022/06/29 11:05:36;;;;;;;;;;;;;;;21.88;100.00;98414.25;5080282;28;20371;-81
2022/06/29 11:13:28;;;;;;;;;;;;;;;21.61;100.00;98412.09;5116016;28;20047;-81
2022/06/29 11:15:58;;;;;;;;;;;;;;;21.84;100.00;98410.84;5097828;28;20230;-82
2022/06/29 11:18:28;;;;;;;;;;;;;;;22.10;100.00;98405.72;5114110;28;19927;-81
2022/06/29 11:21:03;;;;;;;;;;;;;;;21.97;100.00;98405.47;5080657;28;19930;-81
2022/06/29 11:23:32;;;;;;;;;;;;;;;21.98;100.00;98395.63;5097439;28;19924;-81
2022/06/29 11:26:00;;;;;;;;;;;;;;;21.75;100.00;98402.56;5115626;28;19923;-81
2022/06/29 11:28:30;;;;;;;;;;;;;;;21.23;100.00;98404.25;5115737;28;19924;-81
2022/06/29 11:31:02;;;;;;;;;;;;;;;21.83;100.00;98400.78;5097335;28;19923;-81
2022/06/29 11:33:30;;;;;;;;;;;;;;;22.14;100.00;98394.88;5114130;28;19924;-82
2022/06/29 11:36:08;;;;;;;;;;;;;;;22.12;100.00;98400.28;5113407;28;19927;-81
2022/06/29 11:38:40;;;;;;;;;;;;;;;21.79;100.00;98405.16;5097162;28;20359;-81
2022/06/29 11:41:14;;;;;;;;;;;;;;;21.70;100.00;98391.19;5097245;28;19947;-81
2022/06/29 11:43:58;;;;;;;;;;;;;;;21.66;100.00;98402.78;5082543;28;19924;-81
2022/06/29 11:46:27;;;;;;;;;;;;;;;21.16;100.00;98405.50;5115316;27;19958;-81
2022/06/29 11:51:50;;;;;;;;;;;;;;;21.30;100.00;98400.88;5113809;28;19924;-81
2022/06/29 11:54:32;;;;;;;;;;;;;;;21.98;100.00;98395.63;5113691;28;19982;-81
2022/06/29 11:57:00;;;;;;;;;;;;;;;22.46;100.00;98401.78;5079893;28;19924;-81
2022/06/29 11:59:31;;;;;;;;;;;;;;;22.56;100.00;98386.03;5113839;28;19923;-81
2022/06/29 12:01:59;;;;;;;;;;;;;;;20.19;100.00;98390.22;5113676;28;19934;-81
2022/06/29 12:04:28;;;;;;;;;;;;;;;21.21;100.00;98387.69;5096834;28;19971;-81
2022/06/29 12:07:02;;;;;;;;;;;;;;;20.86;100.00;98390.09;5096345;28;20287;-81
2022/06/29 12:09:30;;;;;;;;;;;;;;;21.88;100.00;98397.19;5112822;28;19931;-81
2022/06/29 12:11:57;;;;;;;;;;;;;;;21.87;100.00;98377.78;5063274;28;19947;-81
2022/06/29 12:14:25;;;;;;;;;;;;;;;22.23;100.00;98383.22;5112815;28;20390;-81
2022/06/29 12:16:52;;;;;;;;;;;;;;;21.84;100.00;98390.19;5078919;28;20390;-81
2022/06/29 12:19:20;;;;;;;;;;;;;;;21.86;100.00;98394.06;5078716;28;19924;-81
2022/06/29 12:21:48;;;;;;;;;;;;;;;22.23;100.00;98383.22;5113271;28;19924;-81
2022/06/29 12:24:17;;;;;;;;;;;;;;;21.72;100.00;98372.28;5114442;28;19924;-82
2022/06/29 12:26:45;;;;;;;;;;;;;;;22.13;100.00;98369.78;5114537;28;19924;-81
2022/06/29 12:29:13;;;;;;;;;;;;;;;22.41;100.00;98364.81;5095119;28;19974;-82
2022/06/29 12:31:42;;;;;;;;;;;;;;;22.85;100.00;98371.22;5093220;28;19931;-81
2022/06/29 12:34:10;;;;;;;;;;;;;;;22.11;100.00;98369.50;5112624;28;19924;-82
2022/06/29 12:36:53;;;;;;;;;;;;;;;21.78;100.00;98353.22;5112873;28;19967;-81
2022/06/29 12:39:20;;;;;;;;;;;;;;;22.34;100.00;98366.13;5112148;28;19943;-81
2022/06/29 12:41:48;;;;;;;;;;;;;;;21.95;100.00;98371.06;5113065;28;19963;-81
2022/06/29 12:44:15;;;;;;;;;;;;;;;22.65;100.00;98365.84;5095503;28;19924;-81
2022/06/29 12:46:42;;;;;;;;;;;;;;;23.24;100.00;98356.00;5112661;28;19985;-81
2022/06/29 12:49:10;;;;;;;;;;;;;;;23.75;100.00;98361.66;5112370;28;20382;-82
2022/06/29 12:51:38;;;;;;;;;;;;;;;23.00;100.00;98368.81;5112870;28;19931;-82
2022/06/29 12:54:06;;;;;;;;;;;;;;;23.52;100.00;98370.91;5114097;28;19924;-81
2022/06/29 12:56:33;;;;;;;;;;;;;;;23.04;100.00;98377.06;5112715;28;19931;-81
2022/06/29 12:59:01;;;;;;;;;;;;;;;22.37;100.00;98359.38;5113906;28;19924;-81
2022/06/29 13:01:28;;;;;;;;;;;;;;;22.04;100.00;98367.19;5113609;28;19959;-81
2022/06/29 13:03:58;;;;;;;;;;;;;;;22.19;100.00;98371.31;5095910;28;19934;-81
2022/06/29 13:06:26;;;;;;;;;;;;;;;22.15;100.00;98381.41;5112293;28;19928;-81
2022/06/29 13:08:53;;;;;;;;;;;;;;;21.70;100.00;98369.22;5112460;28;19946;-81
2022/06/29 13:11:21;;;;;;;;;;;;;;;21.38;100.00;98388.53;5112575;28;19938;-81